DW4161 Weather Reports


Display with metric or nautical units.
time (UTC)temp
F
wind
direction
speed
MPH
gust
MPH
rain 1hr
in
rain 24hr
in
rain mn
in
humidity
%
barometer
mb
20181211024559 34 333 0.0 2.0 0.00 0.00 0.00 12 1020.8
20181211023037 34 75 1.0 3.0 0.00 0.00 0.00 14 1021.0
20181211021510 34 18 1.0 4.0 0.00 0.00 0.00 13 1021.0
20181211020004 33 342 1.0 3.0 0.00 0.00 0.00 13 1021.1
20181211014759 34 314 1.0 3.0 0.00 0.00 0.00 13 1021.1
20181211013207 35 322 2.0 3.0 0.00 0.00 0.00 13 1021.1
20181211011616 35 304 2.0 4.0 0.00 0.00 0.00 13 1021.2
20181211010146 35 338 1.0 5.0 0.00 0.00 0.00 14 1021.1
20181211004618 34 354 1.0 2.0 0.00 0.00 0.00 15 1021.2
20181211003059 35 342 1.0 4.0 0.00 0.00 0.00 15 1021.2
20181211001638 36 311 3.0 7.0 0.00 0.00 0.00 15 1021.2
20181211000130 36 321 0.0 2.0 0.00 0.00 0.00 16 1021.3
20181210234534 37 310 1.0 5.0 0.00 0.00 0.00 15 1021.2
20181210233028 37 315 2.0 4.0 0.00 0.00 0.00 15 1021.3
20181210231553 36 323 1.0 3.0 0.00 0.00 0.00 14 1021.2
20181210230010 37 225 0.0 0.0 0.00 0.00 0.00 13 1021.4
20181210224528 38 216 0.0 1.0 0.00 0.00 0.00 12 1021.4
20181210223206 38 168 0.0 0.0 0.00 0.00 0.00 9 1021.4
20181210221643 39 318 0.0 0.0 0.00 0.00 0.00 9 1021.3
20181210220145 39 318 0.0 2.0 0.00 0.00 0.00 9 1021.3
20181210214639 40 322 2.0 5.0 0.00 0.00 0.00 9 1021.2
20181210213120 40 316 3.0 6.0 0.00 0.00 0.00 8 1021.2
20181210211613 40 315 2.0 6.0 0.00 0.00 0.00 9 1021.1
20181210210047 40 316 2.0 4.0 0.00 0.00 0.00 10 1021.1
20181210204614 40 200 0.0 4.0 0.00 0.00 0.00 10 1021.2
20181210203046 40 173 1.0 3.0 0.00 0.00 0.00 9 1021.3
20181210201558 40 273 0.0 4.0 0.00 0.00 0.00 10 1021.5
20181210200026 40 222 1.0 4.0 0.00 0.00 0.00 9 1021.5
20181210194540 39 299 2.0 6.0 0.00 0.00 0.00 9 1021.8
20181210193022 39 262 2.0 6.0 0.00 0.00 0.00 8 1021.9
20181210191505 39 264 2.0 6.0 0.00 0.00 0.00 10 1022.0
20181210190157 40 261 3.0 7.0 0.00 0.00 0.00 9 1022.2
20181210184625 39 311 2.0 6.0 0.00 0.00 0.00 11 1022.2
20181210183248 37 236 2.0 5.0 0.00 0.00 0.00 11 1022.5
20181210181633 35 146 2.0 4.0 0.00 0.00 0.00 12 1022.8
20181210180115 32 145 2.0 6.0 0.00 0.00 0.00 14 1023.2
20181210174604 31 123 2.0 5.0 0.00 0.00 0.00 15 1023.6
20181210173100 29 131 1.0 5.0 0.00 0.00 0.00 17 1023.8
20181210171535 28 149 2.0 6.0 0.00 0.00 0.00 17 1024.0
20181210170039 27 120 3.0 5.0 0.00 0.00 0.00 18 1024.0
20181210164530 26 132 3.0 6.0 0.00 0.00 0.00 19 1024.0
20181210163024 26 215 1.0 4.0 0.00 0.00 0.00 20 1024.0
20181210161516 24 322 2.0 5.0 0.00 0.00 0.00 19 1024.0
20181210160016 23 308 1.0 3.0 0.00 0.00 0.00 22 1024.1
20181210153254 20 322 1.0 3.0 0.00 0.00 0.00 22 1024.0
20181210151558 21 262 0.0 1.0 0.00 0.00 0.00 24 1024.0
20181210150145 19 71 0.0 1.0 0.00 0.00 0.00 25 1023.7
20181210143055 15 110 1.0 2.0 0.00 0.00 0.00 28 1023.6
20181210141621 14 102 0.0 1.0 0.00 0.00 0.00 29 1023.7
20181210140103 14 55 0.0 0.0 0.00 0.00 0.00 30 1023.8
20181210134542 14 88 0.0 1.0 0.00 0.00 0.00 30 1023.8
20181210133046 13 99 0.0 3.0 0.00 0.00 0.00 32 1023.8
20181210131526 14 116 0.0 1.0 0.00 0.00 0.00 31 1023.7
20181210130020 14 103 0.0 1.0 0.00 0.00 0.00 33 1023.7
20181210124508 14 124 1.0 3.0 0.00 0.00 0.00 34 1023.6
20181210123002 13 111 2.0 4.0 0.00 0.00 0.00 36 1023.6
20181210121619 12 105 0.0 1.0 0.00 0.00 0.00 38 1023.6
20181210120223 12 141 1.0 2.0 0.00 0.00 0.00 40 1023.7
20181210114616 11 94 2.0 3.0 0.00 0.00 0.00 44 1023.6
20181210113100 9 91 0.0 2.0 0.00 0.00 0.00 48 1023.5
20181210111614 9 84 0.0 2.0 0.00 0.00 0.00 49 1023.6
20181210110106 9 105 0.0 2.0 0.00 0.00 0.00 52 1023.5
20181210104554 10 98 0.0 2.0 0.00 0.00 0.00 49 1023.5
20181210103034 10 98 0.0 0.0 0.00 0.00 0.00 50 1023.7
20181210101530 10 104 0.0 1.0 0.00 0.00 0.00 52 1023.7
20181210100031 11 94 0.0 0.0 0.00 0.00 0.00 51 1023.8
20181210094531 11 94 0.0 1.0 0.00 0.00 0.00 52 1023.6
20181210093009 12 101 1.0 2.0 0.00 0.00 0.00 50 1023.7
20181210091510 12 98 0.0 1.0 0.00 0.00 0.00 50 1023.7
20181210090118 12 98 0.0 0.0 0.00 0.00 0.00 51 1023.7
20181210084707 12 98 0.0 0.0 0.00 0.00 0.00 52 1023.7
20181210083129 13 99 0.0 1.0 0.00 0.00 0.00 51 1023.7
20181210081622 13 103 0.0 0.0 0.00 0.00 0.00 52 1023.6
20181210080102 13 103 0.0 0.0 0.00 0.00 0.00 52 1023.6
20181210074639 13 103 0.0 0.0 0.00 0.00 0.00 53 1023.6
20181210073050 14 103 0.0 0.0 0.00 0.00 0.00 52 1023.8
20181210071614 14 110 0.0 1.0 0.00 0.00 0.00 52 1023.9
20181210070114 14 103 0.0 2.0 0.00 0.00 0.00 53 1024.0
20181210064543 14 131 0.0 0.0 0.00 0.00 0.00 54 1024.2
20181210063041 14 132 0.0 0.0 0.00 0.00 0.00 54 1024.3
20181210061549 14 132 0.0 0.0 0.00 0.00 0.00 56 1024.5
20181210060048 14 132 0.0 0.0 0.00 0.00 0.00 56 1024.7
20181210054543 14 132 0.0 0.0 0.00 0.00 0.00 55 1024.8
20181210053047 13 133 0.0 0.0 0.00 0.00 0.00 59 1024.8
20181210051535 14 134 0.0 0.0 0.00 0.00 0.00 57 1024.9
20181210050027 14 132 0.0 0.0 0.00 0.00 0.00 57 1024.9
20181210044524 14 86 0.0 0.0 0.00 0.00 0.00 58 1024.9
20181210043041 15 358 0.0 0.0 0.00 0.00 0.00 56 1024.9
20181210041517 16 356 0.0 0.0 0.00 0.00 0.00 55 1025.1
20181210040051 16 357 0.0 1.0 0.00 0.00 0.00 53 1025.2
20181210034514 16 314 0.0 0.0 0.00 0.00 0.00 50 1025.3
20181210033009 18 311 0.0 2.0 0.00 0.00 0.00 47 1025.3
20181210031511 18 307 0.0 2.0 0.00 0.00 0.00 44 1025.2
20181210030013 19 328 2.0 4.0 0.00 0.00 0.00 43 1025.1